Remo Gavranovic

Olheiro-Chefe - Lugano
5 Dez 2027
Domingo
Processo

Personalidade

Adaptabilidade (19) Ambição (11) Controvérsia (10) Lealdade (1) Pressão (19) Profissionalismo (1) Espírito Esportivo (5) Temperamento (1)

Perfil

Estilo de Treinamento Democrático
Licença Continental Pro
Determinação 8
Gestão de Pessoas 7
Motivação 10
Disciplina 5
Satisfação no Trabalho
41%
Fadiga
0%
Função Olheiro-Chefe
Salário 12.0K p/s
Contrato 14.03.2029

Desempenho

Comportamento Bom
Eficácia do Treinamento
13%
Desenvolvimento do Jogador
60%
Prevenção de Lesões
60%
Implementação Tática
30%

Eventos Recentes

Participou de uma reunião de recrutamento agora
Recomendou um alvo de transferência agora
Participou de uma reunião de recrutamento agora
Participou de uma reunião de recrutamento agora
Recomendou um alvo de transferência agora
Recomendou um alvo de transferência agora
Recomendou um alvo de transferência agora
Recomendou um alvo de transferência agora

Monitorando agora

177
Jogador Clube Status Habilidade Confiança Observado Última observação Último voto
Cenny Neumann Köln Ativo 100 / 116 40% 2 30.11.2027 -
Josh Nichols Oldham Athletic Ativo 126 / 120 40% 1 30.11.2027 -
Uche Jaguar Kwara United Ativo 96 / 110 40% 1 28.11.2027 -
David Chinagorom Abia Warriors Ativo 68 / 107 40% 1 28.11.2027 -
Luc Dabrowski Köln Ativo 101 / 108 40% 2 24.11.2027 -
Hosea Michael Remo Stars Ativo 77 / 116 40% 2 24.11.2027 -
Bruno Ogbus Mainz 05 Ativo 130 / 128 40% 5 23.11.2027 -
Cheveyo Tsawa Ludogorets Ativo 119 / 126 40% 1 23.11.2027 -
Bence Dárdai VfL Wolfsburg Ativo 135 / 151 40% 2 22.11.2027 -
Fayssal Harchaoui Köln Ativo 99 / 120 40% 1 22.11.2027 -
Kosta Nedeljković Aston Villa Ativo 133 / 141 40% 2 21.11.2027 -
Luis Otávio FC Dallas Ativo 119 / 100 40% 2 19.11.2027 -
Ignacio Fernández Boston River Ativo 95 / 112 40% 1 19.11.2027 -
Myles Lewis-Skelly Leyton Orient Ativo 160 / 161 40% 2 18.11.2027 -
Onuorah Onyedika Kun Khalifat Ativo 95 / 83 40% 2 18.11.2027 -
Fodé Sylla Sion Ativo 117 / 131 40% 2 16.11.2027 -
Veljko Milosavljević Newcastle United Ativo 146 / 137 40% 1 16.11.2027 -
Joane Gadou Borussia Dortmund Ativo 137 / 127 40% 2 13.11.2027 -
Mikkel Hope Haugesund Ativo 106 / 127 40% 1 13.11.2027 -
Lionel Voufack RB Leipzig Ativo 105 / 106 40% 1 11.11.2027 -
Godwin Oham Warri Wolves Ativo 98 / 103 40% 1 09.11.2027 -
Tyler Meiser Borussia Mönchengladbach Ativo 99 / 112 40% 1 09.11.2027 -
Honest Ahanor Atalanta Ativo 139 / 139 40% 1 07.11.2027 -
Noahkai Banks VfL Wolfsburg Ativo 145 / 152 40% 1 07.11.2027 -
Finn Jeltsch VfB Stuttgart Ativo 137 / 146 40% 1 06.11.2027 -
Ollie Scarles West Ham United Ativo 134 / 145 40% 1 05.11.2027 -
Joel Ezra Enyimba Ativo 87 / 85 40% 1 04.11.2027 -
Keita Kosugi Eintracht Frankfurt Ativo 123 / 127 40% 1 02.11.2027 -
Gideon Manaseh Ikorodu City Ativo 98 / 94 40% 1 02.11.2027 -
Andres Rondon Llaneros Ativo 79 / 86 40% 1 01.11.2027 -
Tiago Poller TSG Hoffenheim Negociando 112 / 131 40% 1 23.08.2027 -
Juan Giménez Rayo Vallecano Ativo 114 / 127 40% 2 26.07.2027 -
João Fonseca Benfica Ativo 108 / 115 40% 1 26.07.2027 -
Rhys Chadwick Burton Albion Ativo 98 / 109 40% 2 06.07.2027 -
Eduardo Felicíssimo Sporting CP Ativo 115 / 114 40% 1 06.07.2027 -
Håkon Evjen Bodo/Glimt Negociando 131 / 131 87% 1 01.06.2027 Aprovar
Mao Hosoya Anderlecht Negociando 134 / 135 67% 1 01.06.2027 Aprovar
Harrison Armstrong Hull City Ativo 128 / 134 40% 2 31.05.2027 -
Filip Marschall Stevenage Ativo 122 / 115 40% 11 29.05.2027 -
Sergio Barlocco Trento Ativo 106 / 105 40% 2 28.05.2027 -
Matteo Rizzo Cosenza Ativo 110 / 110 40% 1 28.05.2027 -
Francesco D'Alterio Ternana Ativo 110 / 117 40% 4 27.05.2027 -
Sam Waller Harrogate Town Ativo 91 / 98 40% 1 27.05.2027 -
Jordan Amissah Burton Albion Ativo 108 / 107 40% 2 26.05.2027 -
Josh Keeley Luton Town Ativo 122 / 133 40% 5 25.05.2027 -
Luca Gemello Perugia Ativo 116 / 114 40% 3 25.05.2027 -
Marvin Keller Tottenham Ativo 147 / 148 40% 3 24.05.2027 -
Alessio Pozzi Vis Pesaro Ativo 97 / 94 40% 3 24.05.2027 -
Nathan Bishop AFC Wimbledon Ativo 100 / 117 40% 2 23.05.2027 -
Elia Caprile Cagliari Ativo 147 / 140 40% 7 21.05.2027 -
Radek Vítek Middlesbrough Ativo 138 / 144 40% 4 20.05.2027 -
Michael Cooper Sheffield United Ativo 131 / 136 40% 2 20.05.2027 -
Mohammed Galadima Aswan Ativo 87 / 95 40% 4 19.05.2027 -
Mohamed Camara Asante Kotoko Ativo 103 / 104 40% 1 17.05.2027 -
Cesare Galeotti Trapani Ativo 107 / 118 40% 1 17.05.2027 -
Valerio Boffelli Cavese Ativo 109 / 117 40% 4 16.05.2027 -
Ludovico Del Sorbo Sorrento Ativo 112 / 120 40% 1 16.05.2027 -
George Wickens Lincoln City Ativo 121 / 108 40% 6 15.05.2027 -
Killian Cahill Leyton Orient Ativo 113 / 98 40% 4 14.05.2027 -
Blas Rolón Alcione Milano Ativo 101 / 107 40% 3 14.05.2027 -
Sascha Britschgi Cosenza Ativo 126 / 127 40% 1 14.05.2027 -
Davide Mastrantonio Latina Ativo 96 / 90 40% 1 10.05.2027 -
Luca Lipani Monopoli Ativo 120 / 117 40% 1 10.05.2027 -
Christos Mouzakitis Hull City Ativo 123 / 126 40% 2 09.05.2027 -
Joshua Oluwayemi Newport County Ativo 105 / 104 40% 2 07.05.2027 -
Elia Summa Picerno Ativo 121 / 124 40% 3 06.05.2027 -
Tom Atcheson Crewe Alexandra Ativo 118 / 115 40% 2 05.05.2027 -
Ibrahim Maza Bayern Munich Ativo 141 / 137 40% 2 05.05.2027 -
Christ Inao Oulaï Fiorentina Ativo 132 / 147 40% 3 04.05.2027 -
Alessandro Zoboletti Sambenedettese Ativo 93 / 96 40% 1 02.05.2027 -
Aidomo Emakhu Oxford United Ativo 123 / 129 40% 1 30.04.2027 -
Tomáš Frühwald Bohemians 1905 Ativo 113 / 103 40% 2 28.04.2027 -
Louis Leroux FC Nantes Ativo 132 / 134 40% 1 28.04.2027 -
Tommaso Cecotti Carpi Ativo 92 / 92 40% 1 28.04.2027 -
Ronwen Vilakazi Ajax Cape Town Ativo 92 / 81 40% 2 20.04.2027 -
Zach Hemming Chesterfield Ativo 114 / 117 40% 2 18.04.2027 -
Murphy Cooper Plymouth Argyle Ativo 122 / 122 40% 1 16.04.2027 -
Will Dennis Milton Keynes Dons Ativo 101 / 110 40% 4 15.04.2027 -
Tom Booth Crewe Alexandra Ativo 97 / 113 40% 3 15.04.2027 -
Thulani Furman SuperSport United Ativo 115 / 91 40% 3 14.04.2027 -
Josh King Charlton Athletic Ativo 142 / 152 40% 2 11.04.2027 -
Samuele Vitale Ascoli Ativo 113 / 109 40% 1 07.04.2027 -
Haissem Hassan Bloemfontein Celtic Ativo 148 / 143 40% 1 06.04.2027 -
Egoitz Arana Real Sociedad Ativo 113 / 109 40% 2 04.04.2027 -
Luther Kekana SuperSport United Ativo 113 / 94 40% 2 01.04.2027 -
Oleksandr Saputin Zorya Ativo 109 / 132 40% 1 01.04.2027 -
James Dornelly Peterborough United Ativo 97 / 108 40% 2 30.03.2027 -
Gianluca Saro Foggia Ativo 121 / 108 40% 2 25.03.2027 -
Justin Hammel Grasshopper Ativo 121 / 117 40% 1 24.03.2027 -
Niccolò Chiorra Casarano Ativo 111 / 101 40% 2 23.03.2027 -
Martin Velichkov Lokomotiv Sofia Ativo 119 / 99 40% 1 23.03.2027 -
Lucas Bergvall Tottenham Ativo 152 / 161 40% 2 18.03.2027 -
Jan Koutný Sigma Olomouc Ativo 121 / 102 40% 1 18.03.2027 -
Joseph Sulemana WAFA Ativo 114 / 109 40% 2 15.03.2027 -
Caleb Yirenkyi Coventry City Ativo 141 / 141 40% 1 15.03.2027 -
Joel McGregor Swindon Town Ativo 85 / 90 40% 1 15.03.2027 -
Tyrese Campbell Sheffield United Ativo 131 / 116 40% 2 12.03.2027 -
Romano Schmid Frosinone Ativo 149 / 144 40% 1 12.03.2027 -
Jonas Harder Basel Ativo 109 / 129 40% 1 09.03.2027 -
Raymond Agyemang Aduana Stars Ativo 69 / 82 40% 1 04.03.2027 -
Tobias Gulliksen Rapid Wien Ativo 119 / 124 40% 1 02.03.2027 -
Leonardo Mendicino Bari Ativo 104 / 125 40% 1 01.03.2027 -
Heorhii Yermakov Metalist Ativo 115 / 130 40% 1 24.02.2027 -
Franco Israel Torino Ativo 126 / 135 40% 1 20.02.2027 -
Pascal Loretz Luzern Ativo 122 / 127 40% 1 20.02.2027 -
Karl Steinmann SC Freiburg Ativo 100 / 110 40% 1 18.02.2027 -
Lennon Miller AC Milan Ativo 137 / 140 40% 1 17.02.2027 -
Elia Boseggia Novara Ativo 109 / 99 40% 1 13.02.2027 -
Samuele di Benedetto Borussia Dortmund Ativo 112 / 107 40% 1 08.02.2027 -
Karim Coulibaly RC Strasbourg Ativo 122 / 138 40% 1 08.02.2027 -
Luca Marino Austria Wien Ativo 110 / 112 40% 1 06.02.2027 -
Jan Olschowsky Borussia Mönchengladbach Ativo 124 / 113 40% 1 05.02.2027 -
Anthony Patterson Wrexham Ativo 123 / 129 40% 1 03.02.2027 -
Kyle Joseph Middlesbrough Ativo 113 / 110 40% 2 18.01.2027 -
Aune Heggebø West Bromwich Albion Ativo 135 / 129 40% 1 18.01.2027 -
Stanislav Agkatsev CSKA Moscow Negociando 132 / 133 66% 1 01.01.2027 Aprovar
Sampson Dweh Lokomotiv Moscow Negociando 133 / 134 66% 1 01.01.2027 Aprovar
Fredrik Sjøvold Bodo/Glimt Ativo 133 / 135 65% 1 01.01.2027 Aprovar
Marezi Portsmouth Ativo 113 / 123 40% 2 31.12.2026 -
Žan Vipotnik Swansea City Ativo 127 / 121 40% 1 31.12.2026 Mais informações
Armstrong Oko-Flex Levski Ativo 120 / 120 40% 1 30.12.2026 -
Philippe Keny Zurich Ativo 131 / 122 40% 2 29.12.2026 -
Noah Ganaus OB Ativo 104 / 98 40% 1 28.12.2026 -
Jens Odgaard Bologna Ativo 130 / 142 40% 1 28.12.2026 -
Matej Trusa DAC Dunajska Streda Ativo 120 / 113 40% 1 27.12.2026 -
Bradley Fink Wycombe Wanderers Ativo 108 / 107 40% 1 26.12.2026 -
Patrick Addo Great Olympics Ativo 112 / 110 40% 1 26.12.2026 -
Yousef Salech Cardiff City Ativo 128 / 113 40% 4 25.12.2026 -
Juan-José Perea Zurich Ativo 131 / 120 40% 1 25.12.2026 -
Ilyas Ansah Hull City Ativo 134 / 125 40% 3 24.12.2026 -
Josias Lukembila Sion Ativo 131 / 134 40% 1 24.12.2026 -
Bendegúz Bolla Rapid Wien Ativo 129 / 121 40% 1 24.12.2026 -
Ousmane Diawara Altach Ativo 106 / 112 40% 5 21.12.2026 -
Filip Stojilković Pisa Ativo 120 / 127 40% 1 20.12.2026 -
Sunusi Ibrahim Cotonsport Garoua Ativo 93 / 89 40% 1 20.12.2026 -
Mateja Bubanj Admira Wacker Ativo 98 / 99 40% 1 18.12.2026 -
Michael Wimmer Mattersburg Ativo 117 / 98 40% 4 17.12.2026 -
Daniel Kyerewaa Reading Ativo 115 / 118 40% 1 17.12.2026 -
Yannick Woudstra Mattersburg Ativo 91 / 101 40% 2 15.12.2026 -
George Hirst Stoke City Ativo 136 / 141 40% 1 13.12.2026 -
Harry Leonard Peterborough United Ativo 118 / 119 40% 1 11.12.2026 -
Claudy M'Buyi Rapid Wien Ativo 122 / 115 40% 2 10.12.2026 -
Matteo di Giusto Luzern Ativo 127 / 130 40% 1 09.12.2026 -
Giacomo Raspadori Atalanta Ativo 155 / 145 40% 1 09.12.2026 -
Brayan León Mamelodi Sundowns Ativo 122 / 125 40% 1 06.12.2026 -
Ibrahim Salah Basel Ativo 132 / 117 40% 1 06.12.2026 -
Gianluca Scamacca Atalanta Ativo 144 / 135 40% 1 03.12.2026 -
Rumarn Burrell Queens Park Rangers Ativo 133 / 134 40% 1 02.12.2026 -
Sam Greenwood Bristol City Ativo 125 / 111 40% 1 30.11.2026 -
Yanis Guermouche Admira Wacker Ativo 111 / 89 40% 1 30.11.2026 -
Rômulo RB Leipzig Ativo 145 / 136 40% 3 28.11.2026 -
Zeki Amdouni Burnley Ativo 125 / 139 40% 1 28.11.2026 -
Ilyas Chouaref Sion Ativo 113 / 131 40% 1 26.11.2026 -
Charles De Ketelaere Atalanta Ativo 163 / 144 40% 2 25.11.2026 -
Fabrizio Cavegn Bristol Rovers Ativo 98 / 99 40% 1 21.11.2026 -
Wessam Abou Ali Columbus Crew Ativo 150 / 152 40% 1 18.11.2026 -
Noah Botic Sturm Graz Ativo 120 / 124 40% 1 17.11.2026 -
Lorenzo González Neftekhimik Ativo 84 / 96 40% 2 14.11.2026 -
Rilind Nivokazi Sion Ativo 107 / 132 40% 1 14.11.2026 -
Petter Nosa Dahl Rapid Wien Ativo 129 / 127 40% 1 11.11.2026 Mais informações
Jesus Ferreira Seattle Sounders Ativo 123 / 111 40% 1 09.11.2026 -
Sinan Karweina Luzern Ativo 104 / 118 40% 1 08.11.2026 -
Leon Grgić Sturm Graz Ativo 118 / 127 40% 2 07.11.2026 -
Kaio Eduardo Basel Ativo 101 / 109 40% 1 05.11.2026 Mais informações
Julian von Moos Grasshopper Ativo 120 / 108 40% 1 04.11.2026 -
Frederik Ihler IF Elfsborg Ativo 98 / 106 40% 1 02.11.2026 -
Darian Maleš Young Boys Ativo 125 / 124 40% 1 09.10.2026 -
Maurits Kjærgaard Red Bull Salzburg Ativo 136 / 138 40% 1 09.10.2026 -
Toni Langsteiner RB Leipzig Ativo 79 / 112 40% 1 08.10.2026 -
Leonardo Campana New England Revolution Ativo 137 / 138 40% 1 06.10.2026 -
Kelvin Yeboah Minnesota United FC Ativo 121 / 125 40% 1 05.10.2026 -
David Nieland Altach Ativo 98 / 85 40% 1 05.10.2026 -
Soumaïla Diabaté Red Bull Salzburg Ativo 107 / 126 40% 1 31.08.2026 -
Philipp Schulz Mainz 05 Ativo 105 / 106 40% 1 31.08.2026 -
Filippo Mané Borussia Dortmund Ativo 115 / 124 40% 1 17.08.2026 -
John Mellberg Red Bull Salzburg Ativo 117 / 129 40% 1 11.08.2026 -
Felix Meiser FC Augsburg Ativo 90 / 88 40% 1 01.08.2026 -